• Join FlightAware (Why Join?)
  • Login
  • US Flag 
01:06PM EDT


 

Airport Tracker/Info


-or-


 

Live Flight TrackerFlight Track Log ✈ AWI3778 ✈ 26-Jun-2013 ✈ KBTV - KPHL

Flight Track Log - Related Links

Times and Time Zones

All times are in EDT time to prevent confusion due to time zone crossing. See the AWI3778 flight status page for this flight to view local times or setup timezone preferences in your user account.

Time Position Orientation Groundspeed Altitude Reporting Facility
EDT Latitude Longitude Course Direction KTS MPH feet Rate Location/Type
02:02PM 44.3325 -73.0961 194° South 250 288 5,100  Level Boston Center
02:03PM 44.0549 -73.3047 196° South  Level FlightAware Approximate
02:03PM 44.2656 -73.1328 201° Southwest 290 334 7,000  Level Boston Center
02:04PM 43.9522 -73.3458 196° South  Level FlightAware Approximate
02:04PM 44.2067 -73.2017 220° Southwest 281 323 9,200  Level Boston Center
02:05PM 43.8492 -73.3855 195° South  Level FlightAware Approximate
02:05PM 44.1436 -73.2733 219° Southwest 291 335 11,300  Level Boston Center
02:06PM 43.7459 -73.4236 195° South  Level FlightAware Approximate
02:06PM 44.0764 -73.3417 216° Southwest 298 343 13,800  Level Boston Center
02:07PM 43.6426 -73.4616 195° South  Level FlightAware Approximate
02:07PM 44.0219 -73.3958 216° Southwest 298 343 15,000  Level Boston Center
02:08PM 43.5391 -73.4981 194° South  Level FlightAware Approximate
02:08PM 43.9400 -73.4694 213° Southwest 313 360 17,100  Level Boston Center
02:09PM 43.8644 -73.5372 213° Southwest 325 374 18,700 1,500 Climbing Boston Center
02:10PM 43.7886 -73.5992 211° Southwest 325 374 20,100 1,320 Climbing Boston Center
02:11PM 43.7108 -73.6667 212° Southwest 325 374 21,400 1,260 Climbing Boston Center
02:12PM 43.6267 -73.7394 212° Southwest 325 374 22,700 1,080 Climbing Boston Center
02:13PM 43.5636 -73.7925 211° Southwest 330 380 23,600 600 Climbing Boston Center
02:14PM 43.4836 -73.8622 212° Southwest 330 380 24,000 120 Climbing Boston Center
02:15PM 43.3908 -73.9431 212° Southwest 347 399 23,900  Descending Boston Center
02:16PM 43.3044 -74.0178 212° Southwest 361 415 24,000  Climbing Boston Center
02:17PM 43.2181 -74.0897 211° Southwest 366 421 24,000  Level Boston Center
02:18PM 43.1356 -74.1614 212° Southwest 366 421 24,000  Level Boston Center
02:19PM 43.0489 -74.2358 212° Southwest 366 421 24,000  Level Boston Center
02:20PM 42.9625 -74.3069 211° Southwest 366 421 24,000  Level Boston Center
02:21PM 42.8758 -74.3808 212° Southwest 366 421 24,000 -540 Level Boston Center
02:22PM 42.7911 -74.4544 213° Southwest 366 421 23,000 -1,020 Descending Boston Center
02:23PM 42.7064 -74.5253 212° Southwest 366 421 22,000 -1,020 Descending Boston Center
02:24PM 42.6197 -74.5958 211° Southwest 366 421 21,000 -1,020 Descending Boston Center
02:25PM 42.5347 -74.6689 212° Southwest 366 421 20,000 -960 Descending Boston Center
02:26PM 42.4500 -74.7389 211° Southwest 366 421 19,100 -540 Descending Boston Center
02:27PM 42.3547 -74.8142 210° Southwest 366 421 19,000 -60 Descending Boston Center
02:28PM 42.2742 -74.8814 212° Southwest 366 421 19,000  Level Boston Center
02:31PM 42.0819 -75.0406 212° Southwest 350 403 19,000  Level New York Center
02:32PM 42.0003 -75.1050 210° Southwest 350 403 19,000  Level New York Center
02:33PM 41.9208 -75.1722 212° Southwest 350 403 19,000  Level New York Center
02:34PM 41.8478 -75.2314 211° Southwest 350 403 19,000 -420 Level New York Center
02:35PM 41.7578 -75.3033 211° Southwest 350 403 18,200 -1,260 Descending New York Center
02:36PM 41.6783 -75.3672 211° Southwest 350 403 16,500 -1,680 Descending New York Center
02:37PM 41.6050 -75.4261 211° Southwest 338 389 14,900 -1,620 Descending New York Center
02:38PM 41.5406 -75.4797 212° Southwest 315 362 13,400 -1,440 Descending New York Center
02:39PM 41.4739 -75.5333 211° Southwest 299 344 12,100 -660 Descending New York Center
02:40PM 41.3986 -75.5914 210° Southwest 294 338 12,100  Level New York Center
02:41PM 41.3278 -75.6444 209° Southwest 289 333 12,100  Level New York Center
02:42PM 41.2531 -75.6886 204° Southwest 289 333 12,100  Level New York Center
02:43PM 41.1697 -75.6881 180° South 294 338 12,100  Level New York Center
02:44PM 41.0947 -75.6883 180° South 305 351 12,100  Level New York Center
02:45PM 41.0133 -75.6878 180° South 305 351 12,100  Level New York Center
02:46PM 40.9217 -75.6894 181° South 310 357 12,100 -360 Level New York Center
02:47PM 40.8342 -75.6886 180° South 305 351 11,400 -780 Descending New York Center
02:48PM 40.7531 -75.6883 180° South 327 376 10,600 -660 Descending New York Center
02:49PM 40.6592 -75.6869 179° South 338 389 10,100 -300 Descending New York Center
02:50PM 40.5669 -75.6503 163° South 333 383 10,100 -300 Level New York Center
02:51PM 40.5206 -75.5625 125° Southeast 315 362 9,500 -540 Descending New York Center
02:52PM 40.4681 -75.4686 126° Southeast 320 368 9,100 -300 Descending New York Center
02:53PM 40.4019 -75.4042 143° Southeast 304 350 9,000 -900 Descending New York Center
02:54PM 40.3225 -75.3581 156° South 290 334 7,400 -1,200 Descending New York Center
02:55PM 40.2511 -75.3181 157° South 290 334 6,700 -720 Descending New York Center
02:56PM 40.1817 -75.2808 158° South 291 335 6,000 -360 Descending New York Center
02:57PM 40.1000 -75.2333 156° South 294 338 6,000  Level Philadelphia TRACON
02:58PM 40.0333 -75.2000 159° South 260 299 6,000  Level Philadelphia TRACON
02:59PM 39.9833 -75.1500 143° Southeast 224 258 6,000  Level Philadelphia TRACON
03:00PM 40.0000 -75.0667 75° East 230 265 6,000 -360 Level Philadelphia TRACON
03:01PM 40.0167 -74.9833 75° East 232 267 5,300 -540 Descending Philadelphia TRACON
03:02PM 40.0167 -74.9167 90° East 232 267 5,000 -180 Descending Philadelphia TRACON
03:03PM 39.9667 -74.8667 143° Southeast 217 250 5,000 -540 Level Philadelphia TRACON
03:04PM 39.9500 -74.9000 237° Southwest 194 223 4,000 -600 Descending Philadelphia TRACON
03:05PM 39.9333 -74.9667 252° West 195 224 3,900 -120 Descending Philadelphia TRACON